NDF42T EDDH-LHBP
Flight info
| Callsign | NDF42T |
|---|---|
| Flight time | 1h 22m |
| Altitude | 23000 |
| Route | RAMAR6B RAMAR Z998 NUSGU/N0443F370 Z998 RATMO DCT BOLBO DCT OMELO DCT ODNEM DCT NIT/N0400F230 M748 ARFOX ARFOX2T |
| Aircraft | A319/M-SDE3FGHIRWY/LB1 |
Departure
| Time | 2026-05-04 10:34 |
|---|---|
| Airport | Hamburg Helmut Schmidt Airport (EDDH) |
Arrival
| Time | 2026-05-04 11:56 |
|---|---|
| Airport | Budapest Liszt Ferenc International Airport (LHBP) |
| Time | Latitude | Longitude | Altitude | Speed | Heading |
|---|---|---|---|---|---|
| 2026-05-04 10:08 | 53.63111 | 10.00378 | 51 ft | 0 kts | 87° |
| 2026-05-04 10:19 | 53.63111 | 10.00377 | 51 ft | 0 kts | 87° |
| 2026-05-04 10:25 | 53.63140 | 10.00253 | 49 ft | 1 kts | 176° |
| 2026-05-04 10:27 | 53.63132 | 10.00254 | 47 ft | 4 kts | 176° |
| 2026-05-04 10:28 | 53.63089 | 10.00259 | 48 ft | 9 kts | 176° |
| 2026-05-04 10:28 | 53.63025 | 10.00217 | 48 ft | 11 kts | 212° |
| 2026-05-04 10:28 | 53.62958 | 10.00146 | 50 ft | 12 kts | 212° |
| 2026-05-04 10:28 | 53.62892 | 10.00075 | 51 ft | 9 kts | 212° |
| 2026-05-04 10:29 | 53.62850 | 9.99980 | 52 ft | 10 kts | 242° |
| 2026-05-04 10:29 | 53.62839 | 9.99945 | 52 ft | 0 kts | 242° |
| 2026-05-04 10:32 | 53.62837 | 9.99941 | 52 ft | 2 kts | 242° |
| 2026-05-04 10:33 | 53.62825 | 9.99903 | 53 ft | 5 kts | 242° |
| 2026-05-04 10:33 | 53.62804 | 9.99833 | 53 ft | 8 kts | 252° |
| 2026-05-04 10:33 | 53.62839 | 9.99765 | 52 ft | 9 kts | 333° |
| 2026-05-04 10:33 | 53.62901 | 9.99712 | 53 ft | 16 kts | 333° |
| 2026-05-04 10:34 | 53.63237 | 9.99415 | 52 ft | 94 kts | 332° |
| 2026-05-04 10:34 | 53.64014 | 9.98738 | 58 ft | 155 kts | 332° |
| 2026-05-04 10:34 | 53.64981 | 9.97928 | 718 ft | 155 kts | 332° |
| 2026-05-04 10:34 | 53.65959 | 9.97097 | 1454 ft | 159 kts | 330° |
| 2026-05-04 10:35 | 53.66987 | 9.96219 | 2030 ft | 175 kts | 330° |
| 2026-05-04 10:35 | 53.68139 | 9.95224 | 2474 ft | 199 kts | 332° |
| 2026-05-04 10:35 | 53.69569 | 9.94647 | 2943 ft | 224 kts | 357° |
| 2026-05-04 10:35 | 53.71148 | 9.94685 | 3866 ft | 228 kts | 358° |
| 2026-05-04 10:36 | 53.72729 | 9.95164 | 4759 ft | 238 kts | 22° |
| 2026-05-04 10:36 | 53.74086 | 9.96871 | 5444 ft | 257 kts | 52° |
| 2026-05-04 10:36 | 53.74995 | 9.99634 | 5956 ft | 281 kts | 65° |
| 2026-05-04 10:36 | 53.75854 | 10.02685 | 6749 ft | 292 kts | 65° |
| 2026-05-04 10:37 | 53.76727 | 10.05780 | 7669 ft | 298 kts | 65° |
| 2026-05-04 10:37 | 53.77631 | 10.08957 | 8622 ft | 303 kts | 65° |
| 2026-05-04 10:37 | 53.78563 | 10.12222 | 9593 ft | 308 kts | 65° |
| 2026-05-04 10:37 | 53.79480 | 10.15428 | 10310 ft | 320 kts | 65° |
| 2026-05-04 10:39 | 53.84207 | 10.39193 | 14315 ft | 375 kts | 100° |
| 2026-05-04 10:39 | 53.83668 | 10.43516 | 15030 ft | 377 kts | 106° |
| 2026-05-04 10:39 | 53.83065 | 10.47860 | 15747 ft | 381 kts | 106° |
| 2026-05-04 10:40 | 53.82459 | 10.52255 | 16443 ft | 386 kts | 106° |
| 2026-05-04 10:40 | 53.81846 | 10.56703 | 17135 ft | 390 kts | 106° |
| 2026-05-04 10:40 | 53.81226 | 10.61205 | 17815 ft | 395 kts | 106° |
| 2026-05-04 10:40 | 53.80596 | 10.65758 | 18464 ft | 399 kts | 107° |
| 2026-05-04 10:41 | 53.79687 | 10.70205 | 19046 ft | 399 kts | 118° |
| 2026-05-04 10:41 | 53.78340 | 10.74303 | 19656 ft | 399 kts | 127° |
| 2026-05-04 10:41 | 53.76849 | 10.78288 | 20260 ft | 403 kts | 127° |
| 2026-05-04 10:41 | 53.75350 | 10.82317 | 20872 ft | 407 kts | 126° |
| 2026-05-04 10:42 | 53.73839 | 10.86397 | 21478 ft | 411 kts | 126° |
| 2026-05-04 10:42 | 53.72263 | 10.90433 | 22064 ft | 411 kts | 132° |
| 2026-05-04 10:42 | 53.70351 | 10.94003 | 22631 ft | 409 kts | 142° |
| 2026-05-04 10:42 | 53.68112 | 10.96938 | 23205 ft | 407 kts | 152° |
| 2026-05-04 10:43 | 53.65683 | 10.99411 | 23729 ft | 409 kts | 154° |
| 2026-05-04 10:44 | 53.49055 | 11.16308 | 26653 ft | 429 kts | 153° |
| 2026-05-04 10:45 | 53.46487 | 11.18910 | 27086 ft | 432 kts | 153° |
| 2026-05-04 10:45 | 53.43907 | 11.21521 | 27516 ft | 434 kts | 153° |
| 2026-05-04 10:45 | 53.41310 | 11.24145 | 27938 ft | 437 kts | 153° |
| 2026-05-04 10:45 | 53.38695 | 11.26788 | 28350 ft | 440 kts | 153° |
| 2026-05-04 10:46 | 53.36064 | 11.29436 | 28762 ft | 442 kts | 153° |
| 2026-05-04 10:46 | 53.33424 | 11.32090 | 29156 ft | 445 kts | 153° |
| 2026-05-04 10:46 | 53.30755 | 11.34768 | 29545 ft | 448 kts | 153° |
| 2026-05-04 10:46 | 53.28079 | 11.37461 | 29928 ft | 451 kts | 152° |
| 2026-05-04 10:47 | 53.25542 | 11.40600 | 30258 ft | 458 kts | 142° |
| 2026-05-04 10:47 | 53.23187 | 11.44212 | 30587 ft | 461 kts | 141° |
| 2026-05-04 10:47 | 53.20829 | 11.47846 | 30915 ft | 462 kts | 141° |
| 2026-05-04 10:47 | 53.18459 | 11.51483 | 31239 ft | 463 kts | 141° |
| 2026-05-04 10:49 | 53.01994 | 11.76595 | 34375 ft | 454 kts | 142° |
| 2026-05-04 10:49 | 52.99676 | 11.80153 | 34752 ft | 455 kts | 139° |
| 2026-05-04 10:50 | 52.97598 | 11.84156 | 35136 ft | 459 kts | 131° |
| 2026-05-04 10:51 | 52.84170 | 12.13492 | 36975 ft | 455 kts | 130° |
| 2026-05-04 10:52 | 52.82248 | 12.17657 | 36975 ft | 454 kts | 130° |
| 2026-05-04 10:52 | 52.78413 | 12.25971 | 36970 ft | 454 kts | 130° |
| 2026-05-04 10:54 | 52.62416 | 12.49510 | 36965 ft | 442 kts | 157° |
| 2026-05-04 10:54 | 52.59648 | 12.51740 | 36950 ft | 442 kts | 157° |
| 2026-05-04 10:56 | 52.37508 | 12.69525 | 36948 ft | 443 kts | 157° |
| 2026-05-04 10:57 | 52.32009 | 12.73901 | 36947 ft | 443 kts | 157° |
| 2026-05-04 10:57 | 52.26460 | 12.78289 | 36952 ft | 443 kts | 157° |
| 2026-05-04 10:58 | 52.20908 | 12.82677 | 36958 ft | 443 kts | 157° |
| 2026-05-04 10:58 | 52.15351 | 12.87069 | 36956 ft | 444 kts | 157° |
| 2026-05-04 10:59 | 52.09784 | 12.91449 | 36958 ft | 444 kts | 157° |
| 2026-05-04 10:59 | 52.04211 | 12.95816 | 36969 ft | 445 kts | 157° |
| 2026-05-04 11:00 | 51.98598 | 13.00208 | 36980 ft | 445 kts | 157° |
| 2026-05-04 11:02 | 51.76329 | 13.17688 | 36989 ft | 446 kts | 154° |
| 2026-05-04 11:05 | 51.35662 | 13.54525 | 36996 ft | 448 kts | 154° |
| 2026-05-04 11:06 | 51.30210 | 13.59367 | 36999 ft | 448 kts | 154° |
| 2026-05-04 11:06 | 51.24756 | 13.64184 | 37000 ft | 448 kts | 154° |
| 2026-05-04 11:10 | 50.86461 | 13.97751 | 36992 ft | 450 kts | 152° |
| 2026-05-04 11:12 | 50.70750 | 14.22162 | 36989 ft | 455 kts | 135° |
| 2026-05-04 11:12 | 50.68578 | 14.25810 | 36987 ft | 455 kts | 135° |
| 2026-05-04 11:12 | 50.64249 | 14.33087 | 36990 ft | 455 kts | 135° |
| 2026-05-04 11:13 | 50.59901 | 14.40373 | 36991 ft | 456 kts | 135° |
| 2026-05-04 11:13 | 50.55541 | 14.47661 | 36998 ft | 456 kts | 135° |
| 2026-05-04 11:14 | 50.51187 | 14.54913 | 37000 ft | 456 kts | 135° |
| 2026-05-04 11:16 | 50.33724 | 14.83802 | 37007 ft | 456 kts | 135° |
| 2026-05-04 11:16 | 50.29337 | 14.91009 | 37003 ft | 456 kts | 135° |
| 2026-05-04 11:17 | 50.24948 | 14.98188 | 37002 ft | 457 kts | 135° |
| 2026-05-04 11:19 | 50.07368 | 15.26772 | 36998 ft | 457 kts | 135° |
| 2026-05-04 11:19 | 50.02956 | 15.33899 | 37000 ft | 457 kts | 135° |
| 2026-05-04 11:20 | 49.98542 | 15.41019 | 37004 ft | 457 kts | 135° |
| 2026-05-04 11:20 | 49.94125 | 15.48113 | 37011 ft | 457 kts | 135° |
| 2026-05-04 11:22 | 49.77100 | 15.75256 | 36997 ft | 458 kts | 135° |
| 2026-05-04 11:23 | 49.72637 | 15.82321 | 36995 ft | 459 kts | 135° |
| 2026-05-04 11:25 | 49.56984 | 16.06951 | 37006 ft | 460 kts | 135° |
| 2026-05-04 11:25 | 49.52499 | 16.13981 | 37010 ft | 460 kts | 135° |
| 2026-05-04 11:27 | 49.32196 | 16.45488 | 37038 ft | 461 kts | 134° |
| 2026-05-04 11:28 | 49.27681 | 16.52448 | 37027 ft | 461 kts | 134° |
| 2026-05-04 11:28 | 49.23180 | 16.59355 | 37027 ft | 461 kts | 135° |
| 2026-05-04 11:29 | 49.18631 | 16.66321 | 37027 ft | 461 kts | 135° |
| 2026-05-04 11:29 | 49.14092 | 16.73253 | 37023 ft | 461 kts | 134° |
| 2026-05-04 11:31 | 48.98208 | 16.97380 | 36462 ft | 462 kts | 135° |
| 2026-05-04 11:33 | 48.82234 | 17.21514 | 34715 ft | 464 kts | 133° |
| 2026-05-04 11:33 | 48.80004 | 17.25068 | 34474 ft | 465 kts | 133° |
| 2026-05-04 11:33 | 48.77790 | 17.28645 | 34228 ft | 465 kts | 133° |
| 2026-05-04 11:34 | 48.75576 | 17.32224 | 33986 ft | 465 kts | 133° |
| 2026-05-04 11:34 | 48.73362 | 17.35787 | 33709 ft | 466 kts | 133° |
| 2026-05-04 11:34 | 48.71123 | 17.39364 | 33439 ft | 466 kts | 133° |
| 2026-05-04 11:34 | 48.68880 | 17.42926 | 33173 ft | 466 kts | 133° |
| 2026-05-04 11:35 | 48.66658 | 17.46431 | 32905 ft | 467 kts | 133° |
| 2026-05-04 11:35 | 48.64406 | 17.49974 | 32649 ft | 467 kts | 133° |
| 2026-05-04 11:35 | 48.62148 | 17.53521 | 32392 ft | 468 kts | 134° |
| 2026-05-04 11:35 | 48.59883 | 17.57074 | 32127 ft | 468 kts | 134° |
| 2026-05-04 11:36 | 48.57622 | 17.60616 | 31855 ft | 469 kts | 135° |
| 2026-05-04 11:36 | 48.55349 | 17.64173 | 31600 ft | 470 kts | 135° |
| 2026-05-04 11:36 | 48.53080 | 17.67724 | 31349 ft | 470 kts | 135° |
| 2026-05-04 11:36 | 48.50797 | 17.71294 | 31093 ft | 471 kts | 135° |
| 2026-05-04 11:37 | 48.48524 | 17.74845 | 30839 ft | 470 kts | 135° |
| 2026-05-04 11:37 | 48.46264 | 17.78372 | 30597 ft | 468 kts | 135° |
| 2026-05-04 11:37 | 48.44002 | 17.81901 | 30357 ft | 467 kts | 135° |
| 2026-05-04 11:37 | 48.41744 | 17.85416 | 30103 ft | 465 kts | 135° |
| 2026-05-04 11:38 | 48.39537 | 17.88851 | 29459 ft | 460 kts | 135° |
| 2026-05-04 11:38 | 48.37316 | 17.92298 | 28793 ft | 453 kts | 135° |
| 2026-05-04 11:38 | 48.35131 | 17.95679 | 28135 ft | 448 kts | 135° |
| 2026-05-04 11:38 | 48.32964 | 17.99020 | 27471 ft | 443 kts | 135° |
| 2026-05-04 11:39 | 48.30822 | 18.02321 | 26860 ft | 438 kts | 135° |
| 2026-05-04 11:39 | 48.28709 | 18.05581 | 26231 ft | 433 kts | 135° |
| 2026-05-04 11:40 | 48.17019 | 18.25121 | 22685 ft | 406 kts | 133° |
| 2026-05-04 11:41 | 48.15144 | 18.28252 | 22180 ft | 401 kts | 133° |
| 2026-05-04 11:41 | 48.13283 | 18.31336 | 21689 ft | 397 kts | 134° |
| 2026-05-04 11:41 | 48.11434 | 18.34382 | 21223 ft | 393 kts | 134° |
| 2026-05-04 11:41 | 48.09605 | 18.37393 | 20758 ft | 388 kts | 134° |
| 2026-05-04 11:42 | 48.07801 | 18.40364 | 20280 ft | 385 kts | 134° |
| 2026-05-04 11:42 | 48.05997 | 18.43338 | 19800 ft | 382 kts | 133° |
| 2026-05-04 11:42 | 48.04230 | 18.46252 | 19315 ft | 379 kts | 134° |
| 2026-05-04 11:42 | 48.02464 | 18.49162 | 18832 ft | 376 kts | 133° |
| 2026-05-04 11:43 | 48.00712 | 18.52049 | 18320 ft | 374 kts | 133° |
| 2026-05-04 11:43 | 47.98976 | 18.54941 | 17782 ft | 372 kts | 130° |
| 2026-05-04 11:43 | 47.97528 | 18.58109 | 17271 ft | 370 kts | 120° |
| 2026-05-04 11:43 | 47.96498 | 18.61615 | 16770 ft | 368 kts | 110° |
| 2026-05-04 11:44 | 47.95705 | 18.65227 | 16267 ft | 364 kts | 109° |
| 2026-05-04 11:44 | 47.94913 | 18.68807 | 15765 ft | 362 kts | 109° |
| 2026-05-04 11:44 | 47.94120 | 18.72361 | 15264 ft | 359 kts | 110° |
| 2026-05-04 11:44 | 47.93329 | 18.75883 | 14763 ft | 357 kts | 110° |
| 2026-05-04 11:45 | 47.92548 | 18.79349 | 14273 ft | 355 kts | 110° |
| 2026-05-04 11:45 | 47.91764 | 18.82819 | 13748 ft | 353 kts | 110° |
| 2026-05-04 11:45 | 47.90983 | 18.86271 | 13224 ft | 350 kts | 110° |
| 2026-05-04 11:45 | 47.90209 | 18.89696 | 12710 ft | 346 kts | 110° |
| 2026-05-04 11:46 | 47.89443 | 18.93085 | 12199 ft | 343 kts | 110° |
| 2026-05-04 11:46 | 47.88652 | 18.96426 | 11687 ft | 339 kts | 115° |
| 2026-05-04 11:46 | 47.87527 | 18.99482 | 11178 ft | 334 kts | 127° |
| 2026-05-04 11:46 | 47.86040 | 19.02130 | 10662 ft | 332 kts | 135° |
| 2026-05-04 11:47 | 47.84491 | 19.04603 | 10517 ft | 319 kts | 135° |
| 2026-05-04 11:47 | 47.83002 | 19.06989 | 10394 ft | 306 kts | 135° |
| 2026-05-04 11:47 | 47.81586 | 19.09261 | 10263 ft | 294 kts | 135° |
| 2026-05-04 11:47 | 47.80205 | 19.11473 | 10057 ft | 288 kts | 135° |
| 2026-05-04 11:48 | 47.78857 | 19.13611 | 9869 ft | 285 kts | 136° |
| 2026-05-04 11:48 | 47.77239 | 19.15234 | 9356 ft | 278 kts | 162° |
| 2026-05-04 11:48 | 47.75356 | 19.15555 | 8784 ft | 273 kts | 189° |
| 2026-05-04 11:48 | 47.73602 | 19.14570 | 8235 ft | 270 kts | 215° |
| 2026-05-04 11:49 | 47.72173 | 19.12749 | 7685 ft | 270 kts | 222° |
| 2026-05-04 11:49 | 47.70783 | 19.10883 | 7132 ft | 268 kts | 222° |
| 2026-05-04 11:49 | 47.69412 | 19.09050 | 6615 ft | 267 kts | 222° |
| 2026-05-04 11:49 | 47.68045 | 19.07225 | 6061 ft | 261 kts | 221° |
| 2026-05-04 11:50 | 47.66706 | 19.05439 | 5507 ft | 256 kts | 221° |
| 2026-05-04 11:50 | 47.65402 | 19.03687 | 4956 ft | 251 kts | 221° |
| 2026-05-04 11:50 | 47.64123 | 19.01965 | 4400 ft | 246 kts | 220° |
| 2026-05-04 11:50 | 47.62873 | 19.00280 | 4029 ft | 237 kts | 221° |
| 2026-05-04 11:51 | 47.61565 | 18.98899 | 3984 ft | 229 kts | 201° |
| 2026-05-04 11:51 | 47.60000 | 18.98676 | 3966 ft | 227 kts | 169° |
| 2026-05-04 11:51 | 47.58586 | 18.99764 | 3982 ft | 236 kts | 140° |
| 2026-05-04 11:51 | 47.57481 | 19.01525 | 3961 ft | 228 kts | 134° |
| 2026-05-04 11:52 | 47.56442 | 19.03258 | 3763 ft | 221 kts | 135° |
| 2026-05-04 11:52 | 47.55429 | 19.04919 | 3508 ft | 220 kts | 135° |
| 2026-05-04 11:52 | 47.54402 | 19.06591 | 3222 ft | 219 kts | 136° |
| 2026-05-04 11:52 | 47.53382 | 19.08252 | 2921 ft | 214 kts | 136° |
| 2026-05-04 11:53 | 47.52401 | 19.09851 | 2652 ft | 205 kts | 136° |
| 2026-05-04 11:53 | 47.51463 | 19.11377 | 2421 ft | 195 kts | 136° |
| 2026-05-04 11:53 | 47.50571 | 19.12828 | 2143 ft | 185 kts | 136° |
| 2026-05-04 11:53 | 47.49732 | 19.14190 | 1898 ft | 173 kts | 136° |
| 2026-05-04 11:55 | 47.45392 | 19.21231 | 646 ft | 120 kts | 137° |
| 2026-05-04 11:55 | 47.44832 | 19.22150 | 503 ft | 120 kts | 135° |
| 2026-05-04 11:56 | 47.44294 | 19.23018 | 454 ft | 101 kts | 134° |
| 2026-05-04 11:56 | 47.43928 | 19.23598 | 456 ft | 52 kts | 132° |
| 2026-05-04 11:56 | 47.43763 | 19.23882 | 455 ft | 34 kts | 123° |
| 2026-05-04 11:56 | 47.43679 | 19.24215 | 456 ft | 30 kts | 101° |
| 2026-05-04 11:57 | 47.43633 | 19.24433 | 457 ft | 20 kts | 115° |
| 2026-05-04 11:57 | 47.43556 | 19.24608 | 457 ft | 21 kts | 129° |
| 2026-05-04 11:57 | 47.43457 | 19.24769 | 457 ft | 21 kts | 131° |
| 2026-05-04 11:57 | 47.43356 | 19.24932 | 457 ft | 22 kts | 132° |
| 2026-05-04 11:58 | 47.43257 | 19.25093 | 457 ft | 19 kts | 131° |
| 2026-05-04 11:58 | 47.43260 | 19.25270 | 457 ft | 19 kts | 50° |
| 2026-05-04 11:58 | 47.43360 | 19.25409 | 456 ft | 20 kts | 43° |
| 2026-05-04 11:58 | 47.43429 | 19.25502 | 457 ft | 21 kts | 42° |
| 2026-05-04 11:59 | 47.43535 | 19.25644 | 456 ft | 18 kts | 43° |
| 2026-05-04 11:59 | 47.43508 | 19.25775 | 457 ft | 15 kts | 133° |
| 2026-05-04 11:59 | 47.43441 | 19.25903 | 457 ft | 16 kts | 133° |
| 2026-05-04 11:59 | 47.43443 | 19.26003 | 456 ft | 9 kts | 42° |
| 2026-05-04 12:00 | 47.43449 | 19.26072 | 457 ft | 6 kts | 137° |
| 2026-05-04 12:00 | 47.43418 | 19.26124 | 456 ft | 4 kts | 132° |
| 2026-05-04 12:00 | 47.43411 | 19.26135 | 457 ft | 0 kts | 132° |